Time;durP1;ratioP1;P1;durP2;ratioP2;P2;SDS_P1;SDS_P2;PMS_P1;PMS_P2;Temp;Humidity;BMP_temperature;BMP_pressure;BME280_temperature;BME280_humidity;BME280_pressure;Samples;Min_cycle;Max_cycle;Signal;HPM_P1;HPM_P2
2021/03/28 00:01:24;;;;;;;208.02;104.07;;;;;;;1.59;73.72;95254.81;1772996;81;21378;-56
2021/03/28 00:03:58;;;;;;;257.05;122.72;;;;;;;1.58;73.70;95264.90;1774535;80;21492;-62
2021/03/28 00:06:33;;;;;;;193.75;98.60;;;;;;;1.60;73.87;95261.23;1773285;81;21480;-57
2021/03/28 00:09:22;;;;;;;184.60;96.57;;;;;;;1.59;73.58;95263.73;1774438;80;21151;-55
2021/03/28 00:12:31;;;;;;;202.28;100.45;;;;;;;1.53;73.37;95274.72;1773168;81;21131;-56
2021/03/28 00:15:13;;;;;;;166.65;86.17;;;;;;;1.40;73.70;95269.41;1774247;80;21202;-55
2021/03/28 00:17:51;;;;;;;177.07;94.42;;;;;;;1.39;73.78;95271.92;1773041;81;21151;-56
2021/03/28 00:20:27;;;;;;;176.82;89.40;;;;;;;1.33;73.56;95270.70;1774479;80;21136;-56
2021/03/28 00:23:17;;;;;;;185.32;93.33;;;;;;;1.27;73.55;95266.78;1772976;81;21052;-56
2021/03/28 00:26:00;;;;;;;180.30;91.90;;;;;;;1.24;73.87;95266.75;1774462;80;21202;-55
2021/03/28 00:28:45;;;;;;;171.10;90.92;;;;;;;1.30;73.99;95268.73;1773235;81;21450;-56
2021/03/28 00:31:29;;;;;;;163.22;83.52;;;;;;;1.38;73.74;95270.37;1773822;80;21209;-55
2021/03/28 00:34:24;;;;;;;174.68;90.20;;;;;;;1.36;73.25;95267.23;1755116;81;21250;-55
2021/03/28 00:37:01;;;;;;;153.72;81.00;;;;;;;1.33;73.29;95269.94;1733353;82;21113;-58
2021/03/28 00:39:48;;;;;;;143.80;76.30;;;;;;;1.33;73.26;95269.34;1755295;81;21761;-60
2021/03/28 00:42:42;;;;;;;129.07;70.17;;;;;;;1.35;73.16;95271.09;1733543;82;21219;-56
2021/03/28 00:45:25;;;;;;;136.57;71.30;;;;;;;1.33;72.98;95272.05;1755170;81;21600;-58
2021/03/28 00:48:11;;;;;;;120.42;65.17;;;;;;;1.30;72.85;95266.03;1733486;82;21072;-59
2021/03/28 00:50:55;;;;;;;107.65;59.85;;;;;;;1.24;72.91;95270.25;1755175;81;21147;-56
2021/03/28 00:53:54;;;;;;;148.15;81.15;;;;;;;1.18;72.84;95270.97;1733697;82;21128;-63
2021/03/28 00:56:45;;;;;;;170.70;87.70;;;;;;;1.09;73.35;95268.57;1755351;81;23564;-56
2021/03/28 00:59:32;;;;;;;180.30;96.32;;;;;;;1.09;73.63;95270.48;1708062;82;21179;-56
2021/03/28 01:02:31;;;;;;;190.05;96.53;;;;;;;1.05;73.89;95263.70;1753026;81;21552;-56
2021/03/28 01:05:14;;;;;;;183.37;98.45;;;;;;;1.04;74.23;95264.86;1733431;82;21223;-56
2021/03/28 01:07:56;;;;;;;139.95;73.42;;;;;;;1.05;74.37;95257.49;1754906;81;21107;-56
2021/03/28 01:11:13;;;;;;;143.25;76.07;;;;;;;1.08;74.25;95264.30;1733071;82;22048;-60
2021/03/28 01:14:04;;;;;;;153.60;78.15;;;;;;;0.99;73.97;95267.13;1754453;81;21270;-55
2021/03/28 01:17:13;;;;;;;121.77;69.87;;;;;;;0.93;74.21;95265.33;1732966;82;21215;-56
2021/03/28 01:20:27;;;;;;;142.47;75.03;;;;;;;0.96;74.11;95267.28;1754760;81;21560;-57
2021/03/28 01:23:07;;;;;;;139.90;77.07;;;;;;;1.00;73.96;95276.22;1733242;82;21167;-57
2021/03/28 01:26:10;;;;;;;154.82;77.37;;;;;;;1.01;73.85;95274.30;1754601;81;21388;-55
2021/03/28 01:28:49;;;;;;;155.27;81.10;;;;;;;1.01;73.78;95275.65;1732932;82;21140;-56
2021/03/28 01:31:35;;;;;;;180.03;87.30;;;;;;;1.02;73.97;95276.64;1754695;81;21163;-56
2021/03/28 01:34:23;;;;;;;163.50;82.50;;;;;;;1.02;73.87;95271.23;1733042;82;21132;-56
2021/03/28 01:37:11;;;;;;;156.35;81.30;;;;;;;1.03;74.19;95263.86;1754822;81;21139;-55
2021/03/28 01:40:08;;;;;;;173.60;88.72;;;;;;;1.05;73.91;95269.13;1733004;82;21517;-56
2021/03/28 01:43:03;;;;;;;174.85;90.10;;;;;;;1.06;74.12;95273.38;1754666;81;21139;-55
2021/03/28 01:45:56;;;;;;;151.10;77.90;;;;;;;1.11;73.95;95266.26;1732869;82;21180;-55
2021/03/28 01:48:45;;;;;;;158.85;82.55;;;;;;;1.04;73.84;95274.34;1754658;81;21088;-62
2021/03/28 01:51:38;;;;;;;147.75;77.55;;;;;;;0.95;73.97;95279.86;1732949;82;21152;-55
2021/03/28 01:54:39;;;;;;;148.85;79.10;;;;;;;0.84;74.10;95264.87;1754408;81;21381;-55
2021/03/28 01:57:29;;;;;;;145.97;86.13;;;;;;;0.81;74.33;95265.59;1871785;76;27843;-56
2021/03/28 02:00:10;;;;;;;;;;;;;;;0.84;74.50;95266.22;1843960;77;21115;-57
2021/03/28 02:02:44;;;;;;;130.00;69.58;;;;;;;0.81;74.12;95262.11;1849110;77;21360;-60
2021/03/28 02:06:03;;;;;;;126.00;68.72;;;;;;;0.72;74.32;95263.77;1830362;77;21071;-58
2021/03/28 02:08:55;;;;;;;122.05;68.75;;;;;;;0.72;74.38;95262.42;1849013;77;21178;-56
2021/03/28 02:11:47;;;;;;;125.42;67.62;;;;;;;0.65;74.32;95260.21;1849195;77;21056;-54
2021/03/28 02:14:41;;;;;;;115.92;64.15;;;;;;;0.62;74.45;95263.08;1712673;77;21166;-55
2021/03/28 02:17:36;;;;;;;114.85;62.35;;;;;;;0.60;74.45;95274.09;1849099;77;21265;-56
2021/03/28 02:20:23;;;;;;;133.18;71.20;;;;;;;0.60;74.34;95281.63;1846145;77;21555;-55
2021/03/28 02:23:15;;;;;;;131.57;70.62;;;;;;;0.63;74.41;95270.05;1849158;77;20968;-57
2021/03/28 02:25:51;;;;;;;134.22;68.90;;;;;;;0.59;74.53;95264.41;1846333;77;21666;-57
2021/03/28 02:28:48;;;;;;;134.75;71.37;;;;;;;0.63;75.02;95270.64;1819540;77;21119;-54
2021/03/28 02:31:38;;;;;;;122.47;66.77;;;;;;;0.69;75.18;95267.23;1845219;77;22153;-56
2021/03/28 02:34:33;;;;;;;128.18;66.75;;;;;;;0.73;74.93;95265.89;1795059;79;21575;-55
2021/03/28 02:37:10;;;;;;;123.42;63.87;;;;;;;0.67;75.02;95267.38;1796165;79;21165;-55
2021/03/28 02:39:53;;;;;;;115.72;63.73;;;;;;;0.68;75.12;95267.03;1887774;76;22209;-56
2021/03/28 02:42:34;;;;;;;122.17;67.22;;;;;;;0.60;75.30;95262.67;1848818;77;21135;-55
2021/03/28 02:45:27;;;;;;;118.17;62.85;;;;;;;0.65;75.22;95269.13;1849227;77;21261;-56
2021/03/28 02:48:22;;;;;;;;;;;;;;;0.68;75.13;95271.09;1821867;77;21071;-58
2021/03/28 02:51:10;;;;;;;118.77;65.03;;;;;;;0.71;74.96;95266.84;1848770;77;20217;-55
2021/03/28 02:54:21;;;;;;;123.20;65.75;;;;;;;0.62;75.24;95271.20;1849063;77;21141;-59
2021/03/28 02:57:04;;;;;;;134.97;75.35;;;;;;;0.62;75.24;95277.97;1848301;77;21142;-56
2021/03/28 03:00:14;;;;;;;119.87;65.83;;;;;;;0.66;75.25;95276.09;1849066;77;21183;-54
2021/03/28 03:03:19;;;;;;;117.37;62.05;;;;;;;0.68;74.95;95282.48;1849110;77;21051;-56
2021/03/28 03:05:58;;;;;;;112.75;65.12;;;;;;;0.63;74.82;95274.70;1849113;77;21154;-56
2021/03/28 03:09:15;;;;;;;109.83;61.63;;;;;;;0.57;75.13;95278.89;1849041;77;21480;-58
2021/03/28 03:12:08;;;;;;;120.15;63.45;;;;;;;0.61;75.21;95287.23;1849024;77;21206;-55
2021/03/28 03:15:06;;;;;;;106.32;59.15;;;;;;;0.68;74.86;95289.24;1849236;77;21359;-55
2021/03/28 03:18:30;;;;;;;112.92;62.53;;;;;;;0.68;74.74;95287.33;1848991;77;21571;-55
2021/03/28 03:21:17;;;;;;;108.32;60.73;;;;;;;0.65;74.64;95282.66;1847912;77;21175;-55
2021/03/28 03:24:35;;;;;;;115.47;63.78;;;;;;;0.67;74.58;95280.92;1849173;77;21626;-55
2021/03/28 03:27:24;;;;;;;110.08;63.23;;;;;;;0.70;74.28;95277.47;1849132;77;21115;-54
2021/03/28 03:30:31;;;;;;;112.65;61.08;;;;;;;0.68;73.92;95279.77;1847482;77;21211;-55
2021/03/28 03:33:21;;;;;;;120.92;63.90;;;;;;;0.66;73.85;95282.87;1807654;77;21222;-55
2021/03/28 03:36:01;;;;;;;127.22;66.45;;;;;;;0.57;73.94;95284.31;1795554;79;21148;-56
2021/03/28 03:38:49;;;;;;;116.62;62.88;;;;;;;0.53;73.91;95280.77;1772166;79;21174;-56
2021/03/28 03:41:57;;;;;;;115.15;63.45;;;;;;;0.46;73.82;95278.78;1796125;79;21155;-56
2021/03/28 03:45:14;;;;;;;112.20;64.17;;;;;;;0.42;74.19;95274.47;1796056;79;21356;-58
2021/03/28 03:48:24;;;;;;;114.72;62.03;;;;;;;0.43;74.06;95279.50;1796016;78;21059;-56
2021/03/28 03:51:20;;;;;;;113.00;60.85;;;;;;;0.39;73.77;95271.92;1756619;81;21132;-54
2021/03/28 03:54:11;;;;;;;109.67;63.58;;;;;;;0.28;74.17;95277.00;1756531;81;21163;-55
2021/03/28 03:57:19;;;;;;;105.80;58.13;;;;;;;0.33;74.43;95281.52;1786650;79;21111;-56
2021/03/28 04:00:00;;;;;;;108.83;60.98;;;;;;;0.27;74.22;95281.66;1795521;79;21195;-56
2021/03/28 04:03:14;;;;;;;94.00;56.42;;;;;;;0.13;74.71;95285.53;1795467;79;21198;-55
2021/03/28 04:06:06;;;;;;;107.05;58.65;;;;;;;0.08;75.03;95285.83;1795489;79;21068;-57
2021/03/28 04:09:03;;;;;;;113.92;62.17;;;;;;;0.01;75.12;95285.75;1795600;79;21524;-55
2021/03/28 04:12:18;;;;;;;151.50;78.42;;;;;;;-0.05;75.29;95296.48;1795520;79;21164;-57
2021/03/28 04:15:14;;;;;;;128.05;73.65;;;;;;;-0.12;75.54;95297.73;1795549;79;22179;-55
2021/03/28 04:18:23;;;;;;;133.00;69.25;;;;;;;-0.11;76.12;95299.28;1795318;78;21198;-56
2021/03/28 04:21:23;;;;;;;127.02;75.47;;;;;;;-0.07;75.87;95302.84;1795521;79;21094;-55
2021/03/28 04:24:04;;;;;;;124.65;73.25;;;;;;;-0.05;75.70;95308.66;1795433;79;21059;-61
2021/03/28 04:26:50;;;;;;;132.18;76.40;;;;;;;-0.16;75.86;95298.25;1795563;79;21116;-56
2021/03/28 04:29:19;;;;;;;117.47;68.90;;;;;;;-0.12;76.31;95290.97;1792054;79;21614;-56
2021/03/28 04:31:59;;;;;;;128.27;78.00;;;;;;;-0.04;76.45;95275.06;1795432;78;21150;-55
2021/03/28 04:34:36;;;;;;;134.03;76.00;;;;;;;0.06;76.33;95273.84;1795543;79;21147;-56
2021/03/28 04:37:12;;;;;;;139.20;81.87;;;;;;;0.19;76.13;95275.17;1795513;79;21126;-56
2021/03/28 04:40:16;;;;;;;143.57;78.28;;;;;;;0.31;75.74;95285.17;1795355;79;21104;-58
2021/03/28 04:43:32;;;;;;;130.25;75.32;;;;;;;0.35;75.32;95279.22;1795606;79;21393;-55
2021/03/28 04:46:40;;;;;;;132.93;74.67;;;;;;;0.36;75.16;95275.37;1795538;79;22301;-56
2021/03/28 04:49:24;;;;;;;133.05;73.85;;;;;;;0.42;75.03;95273.12;1795511;79;21115;-57
2021/03/28 04:52:37;;;;;;;122.55;70.00;;;;;;;0.49;74.87;95258.30;1793060;79;21087;-59
2021/03/28 04:55:28;;;;;;;131.25;75.57;;;;;;;0.56;74.82;95261.86;1795551;79;21127;-57
2021/03/28 04:58:11;;;;;;;145.62;81.10;;;;;;;0.62;74.69;95260.95;1795486;79;21200;-58
2021/03/28 05:01:27;;;;;;;139.20;78.28;;;;;;;0.64;74.46;95274.34;1795623;79;21127;-58
2021/03/28 05:04:50;;;;;;;180.90;109.32;;;;;;;0.62;74.37;95271.20;1795570;79;21182;-57
2021/03/28 05:07:40;;;;;;;127.82;74.72;;;;;;;0.53;74.69;95273.44;1795522;79;21147;-56
2021/03/28 05:10:46;;;;;;;127.05;74.75;;;;;;;0.61;74.94;95275.05;1752661;78;21210;-55
2021/03/28 05:13:58;;;;;;;139.72;81.90;;;;;;;0.48;74.72;95272.98;1795609;79;21351;-55
2021/03/28 05:16:59;;;;;;;143.85;85.75;;;;;;;0.34;75.00;95265.48;1795623;79;21230;-56
2021/03/28 05:20:15;;;;;;;179.38;109.15;;;;;;;0.25;75.28;95269.63;1795455;79;21171;-59
2021/03/28 05:23:18;;;;;;;180.50;108.35;;;;;;;0.24;75.58;95264.78;1775447;79;21198;-57
2021/03/28 05:26:14;;;;;;;170.45;106.17;;;;;;;0.33;76.10;95251.76;1795636;79;21607;-55
2021/03/28 05:29:24;;;;;;;158.75;91.72;;;;;;;0.51;76.18;95250.02;1795457;79;21368;-56
2021/03/28 05:32:21;;;;;;;164.05;100.20;;;;;;;0.67;76.15;95242.46;1780459;78;21075;-58
2021/03/28 05:35:22;;;;;;;146.05;90.42;;;;;;;0.83;76.17;95251.69;1795446;79;21123;-57
2021/03/28 05:38:10;;;;;;;141.85;85.03;;;;;;;1.02;76.15;95250.12;1795506;79;21059;-57
2021/03/28 05:41:22;;;;;;;160.48;92.57;;;;;;;1.21;75.93;95250.68;1816528;78;21665;-60
2021/03/28 05:44:34;;;;;;;120.05;73.52;;;;;;;1.28;75.56;95245.31;1713748;78;21213;-56
2021/03/28 05:47:23;;;;;;;127.67;78.30;;;;;;;1.28;75.42;95241.24;1818396;78;21599;-56
2021/03/28 05:49:59;;;;;;;124.22;76.02;;;;;;;1.28;75.71;95249.38;1818282;78;21137;-56
2021/03/28 05:53:14;;;;;;;139.20;82.33;;;;;;;1.42;75.54;95252.76;1791834;78;21154;-56
2021/03/28 05:56:02;;;;;;;136.65;80.85;;;;;;;1.57;75.79;95247.64;1818006;78;21460;-57
2021/03/28 05:58:44;;;;;;;117.45;75.15;;;;;;;1.91;75.66;95253.28;1818037;78;21372;-56
2021/03/28 06:01:36;;;;;;;114.75;72.97;;;;;;;2.19;74.89;95241.22;1818107;78;21079;-58
2021/03/28 06:04:37;;;;;;;103.67;64.58;;;;;;;2.32;74.36;95247.08;1817868;78;21130;-57
2021/03/28 06:07:35;;;;;;;91.82;57.53;;;;;;;2.41;74.19;95235.27;1817992;78;21075;-57
2021/03/28 06:10:59;;;;;;;120.95;69.85;;;;;;;2.47;73.89;95228.32;1818014;78;21571;-57
2021/03/28 06:14:17;;;;;;;100.30;61.83;;;;;;;2.56;73.65;95217.86;1818163;78;21203;-56
2021/03/28 06:16:54;;;;;;;99.52;59.45;;;;;;;2.75;73.53;95212.08;1818006;78;21134;-56
2021/03/28 06:19:42;;;;;;;87.15;52.58;;;;;;;2.97;73.32;95209.01;1818092;78;21159;-56
2021/03/28 06:22:27;;;;;;;104.83;65.03;;;;;;;3.07;73.15;95202.02;1817953;78;21064;-57
2021/03/28 06:25:43;;;;;;;104.47;67.45;;;;;;;3.15;73.08;95207.64;1817400;78;21203;-60
2021/03/28 06:28:25;;;;;;;91.55;55.45;;;;;;;3.34;72.76;95222.20;1818023;78;21170;-56
2021/03/28 06:31:23;;;;;;;109.03;66.28;;;;;;;3.51;71.71;95227.05;1817887;78;21150;-57
2021/03/28 06:33:59;;;;;;;119.70;77.75;;;;;;;3.50;71.36;95221.41;1817954;78;21147;-56
2021/03/28 06:36:58;;;;;;;105.80;64.82;;;;;;;3.48;71.25;95226.47;1815732;78;21217;-60
2021/03/28 06:40:06;;;;;;;108.57;69.30;;;;;;;3.50;71.13;95217.94;1812632;78;21539;-62
2021/03/28 06:43:00;;;;;;;117.40;71.75;;;;;;;3.54;70.92;95220.82;1798039;79;22254;-60
2021/03/28 06:45:53;;;;;;;110.50;70.47;;;;;;;3.51;70.68;95218.88;1797937;79;21194;-60
2021/03/28 06:48:38;;;;;;;90.83;56.50;;;;;;;3.50;70.73;95219.29;1798081;79;21158;-56
2021/03/28 06:51:41;;;;;;;88.95;53.08;;;;;;;3.52;70.87;95224.52;1797834;79;21574;-57
2021/03/28 06:54:31;;;;;;;;;;;;;;;3.55;70.68;95229.17;1800693;79;21154;-60
2021/03/28 06:57:51;;;;;;;101.45;57.10;;;;;;;3.58;70.66;95234.42;1798035;78;21194;-56
2021/03/28 07:00:27;;;;;;;87.85;54.05;;;;;;;3.64;70.77;95225.48;1797784;78;21181;-56
2021/03/28 07:03:28;;;;;;;88.60;53.75;;;;;;;3.73;70.59;95234.00;1797958;79;21134;-57
2021/03/28 07:06:28;;;;;;;74.35;46.20;;;;;;;3.83;70.29;95235.18;1797596;79;21075;-60
2021/03/28 07:09:17;;;;;;;83.67;50.20;;;;;;;3.92;69.99;95221.36;1797926;79;21147;-58
2021/03/28 07:12:18;;;;;;;72.97;46.23;;;;;;;4.08;69.94;95218.95;1797824;78;21182;-57
2021/03/28 07:15:12;;;;;;;83.00;54.00;;;;;;;4.34;69.82;95228.58;1797736;79;22022;-57
2021/03/28 07:18:33;;;;;;;90.87;52.00;;;;;;;4.53;69.66;95226.17;1797863;78;21166;-58
2021/03/28 07:21:35;;;;;;;93.22;60.10;;;;;;;4.65;68.97;95233.12;1797848;78;21190;-59
2021/03/28 07:24:15;;;;;;;101.97;60.48;;;;;;;4.69;69.07;95225.13;1797967;79;21135;-61
2021/03/28 07:27:32;;;;;;;96.87;58.83;;;;;;;4.77;68.87;95219.81;1770695;79;21761;-57
2021/03/28 07:30:37;;;;;;;94.80;59.15;;;;;;;4.77;69.16;95233.44;1798104;79;21178;-58
2021/03/28 07:33:32;;;;;;;104.05;66.77;;;;;;;4.80;68.85;95230.51;1798079;78;21072;-58
2021/03/28 07:36:28;;;;;;;100.30;63.35;;;;;;;4.80;68.98;95225.81;1798194;79;21206;-58
2021/03/28 07:39:50;;;;;;;94.22;58.42;;;;;;;4.79;68.53;95238.50;1798222;79;21483;-56
2021/03/28 07:43:06;;;;;;;115.62;69.87;;;;;;;4.63;68.88;95236.22;1798261;79;21364;-56
2021/03/28 07:46:15;;;;;;;109.45;68.37;;;;;;;4.44;69.60;95253.05;1798016;79;21159;-60
2021/03/28 07:49:09;;;;;;;111.57;69.87;;;;;;;4.34;69.94;95264.78;1797918;79;21234;-56
2021/03/28 07:52:04;;;;;;;106.90;65.97;;;;;;;4.27;70.33;95285.20;1798054;79;21146;-55
2021/03/28 07:55:16;;;;;;;94.37;60.70;;;;;;;4.28;70.73;95292.20;1798064;78;21602;-59
2021/03/28 07:58:36;;;;;;;98.75;62.20;;;;;;;4.31;70.90;95295.52;1798070;79;22304;-57
2021/03/28 08:01:10;;;;;;;92.85;60.67;;;;;;;4.29;70.75;95282.10;1797967;79;21138;-56
2021/03/28 08:03:56;;;;;;;94.60;61.18;;;;;;;4.22;71.24;95290.30;1790441;79;21175;-57
2021/03/28 08:06:41;;;;;;;120.33;74.62;;;;;;;4.18;71.67;95291.66;1772310;79;21290;-61
2021/03/28 08:09:43;;;;;;;120.95;77.37;;;;;;;4.14;72.43;95282.73;1798112;79;21182;-60
2021/03/28 08:12:41;;;;;;;112.28;69.45;;;;;;;4.15;72.80;95282.13;1797904;78;21359;-58
2021/03/28 08:15:49;;;;;;;85.38;54.65;;;;;;;4.19;73.29;95282.89;1797738;79;21155;-58
2021/03/28 08:18:27;;;;;;;82.08;50.83;;;;;;;4.22;73.43;95280.77;1797976;79;21170;-59
2021/03/28 08:21:34;;;;;;;127.67;74.95;;;;;;;4.21;73.57;95282.70;1798176;79;21102;-60
2021/03/28 08:24:19;;;;;;;164.88;95.25;;;;;;;4.18;73.66;95285.42;1781716;79;21139;-66
2021/03/28 08:27:17;;;;;;;137.97;86.60;;;;;;;4.18;74.05;95283.50;1792366;79;21776;-57
2021/03/28 08:30:03;;;;;;;123.20;73.37;;;;;;;4.21;74.19;95290.11;1797568;79;21622;-57
2021/03/28 08:32:49;;;;;;;120.47;77.67;;;;;;;4.29;74.24;95285.61;1769147;79;21210;-58
2021/03/28 08:35:29;;;;;;;123.07;80.42;;;;;;;4.46;74.18;95282.63;1797428;79;21197;-56
2021/03/28 08:38:27;;;;;;;124.67;79.90;;;;;;;4.62;74.17;95281.59;1763600;79;21142;-59
2021/03/28 08:41:03;;;;;;;112.05;72.80;;;;;;;4.77;74.12;95281.73;1794348;78;21369;-58
2021/03/28 08:43:58;;;;;;;112.60;76.42;;;;;;;4.89;74.09;95288.86;1791630;80;21225;-57
2021/03/28 08:46:40;;;;;;;108.30;67.75;;;;;;;4.99;73.44;95290.73;1791819;80;21071;-58
2021/03/28 08:49:23;;;;;;;133.15;85.10;;;;;;;5.00;73.19;95285.47;1791979;80;21146;-62
2021/03/28 08:52:19;;;;;;;137.50;86.92;;;;;;;4.89;73.33;95280.69;1792011;80;21132;-58
2021/03/28 08:55:19;;;;;;;145.57;93.17;;;;;;;4.81;73.97;95281.12;1787852;80;21382;-58
2021/03/28 08:58:20;;;;;;;110.92;72.62;;;;;;;4.86;74.27;95277.39;1791718;80;21169;-58
2021/03/28 09:01:06;;;;;;;142.62;82.10;;;;;;;4.95;74.31;95277.72;1791623;80;21174;-60
2021/03/28 09:04:07;;;;;;;151.82;87.92;;;;;;;5.05;74.10;95274.17;1765364;80;21605;-59
2021/03/28 09:06:59;;;;;;;164.47;97.97;;;;;;;5.15;73.59;95272.55;1791733;80;21122;-61
2021/03/28 09:10:07;;;;;;;158.70;107.22;;;;;;;5.18;73.32;95274.48;1791492;80;21568;-62
2021/03/28 09:12:59;;;;;;;147.28;103.80;;;;;;;5.23;73.20;95281.05;1791817;80;21610;-58
2021/03/28 09:16:03;;;;;;;141.73;97.42;;;;;;;5.39;73.00;95283.30;1791814;80;21205;-60
2021/03/28 09:19:11;;;;;;;132.27;83.58;;;;;;;5.39;72.87;95285.42;1791877;80;21222;-59
2021/03/28 09:21:52;;;;;;;118.62;77.08;;;;;;;5.27;73.01;95289.22;1791817;78;21700;-62
2021/03/28 09:24:50;;;;;;;112.37;73.25;;;;;;;5.14;73.35;95296.91;1792006;78;22029;-57
2021/03/28 09:27:38;;;;;;;94.30;64.32;;;;;;;5.06;73.45;95311.17;1791836;80;21185;-57
2021/03/28 09:30:22;;;;;;;101.10;62.60;;;;;;;4.93;73.76;95308.70;1791997;80;21605;-57
2021/03/28 09:33:32;;;;;;;104.27;65.90;;;;;;;4.85;74.35;95311.85;1791795;80;21206;-57
2021/03/28 09:36:37;;;;;;;116.62;69.07;;;;;;;4.76;74.37;95313.64;1791897;80;21154;-59
2021/03/28 09:39:49;;;;;;;114.45;70.47;;;;;;;4.71;74.68;95321.45;1765512;80;22295;-57
2021/03/28 09:42:40;;;;;;;111.68;70.87;;;;;;;4.72;74.73;95331.96;1811966;79;21620;-57
2021/03/28 09:45:50;;;;;;;114.85;74.95;;;;;;;4.74;74.77;95330.19;1811925;79;21179;-58
2021/03/28 09:48:33;;;;;;;134.18;85.77;;;;;;;4.64;74.85;95332.38;1811929;79;21167;-58
2021/03/28 09:51:15;;;;;;;125.92;77.92;;;;;;;4.46;74.81;95332.42;1812043;79;21598;-58
2021/03/28 09:54:16;;;;;;;128.00;79.65;;;;;;;4.30;75.23;95347.65;1812039;79;21620;-59
2021/03/28 09:57:18;;;;;;;113.45;72.03;;;;;;;4.17;75.45;95344.56;1791709;79;21199;-56
2021/03/28 10:00:20;;;;;;;109.05;73.28;;;;;;;4.10;76.12;95343.23;1811859;79;21172;-58
2021/03/28 10:03:26;;;;;;;122.70;79.22;;;;;;;4.19;76.12;95362.65;1811948;79;21627;-56
2021/03/28 10:06:04;;;;;;;144.90;96.35;;;;;;;4.15;76.08;95361.88;1812118;79;21140;-63
2021/03/28 10:08:35;;;;;;;139.15;94.55;;;;;;;4.16;76.35;95370.23;1812291;79;21656;-57
2021/03/28 10:11:14;;;;;;;109.22;71.12;;;;;;;4.23;76.42;95375.66;1811823;79;21552;-57
2021/03/28 10:14:24;;;;;;;104.58;71.00;;;;;;;4.28;76.05;95376.63;1811931;79;21057;-58
2021/03/28 10:17:19;;;;;;;109.20;73.90;;;;;;;4.28;76.13;95380.71;1812011;79;21191;-59
2021/03/28 10:19:48;;;;;;;130.37;83.50;;;;;;;4.30;76.09;95386.56;1811970;79;21152;-57
2021/03/28 10:22:38;;;;;;;127.15;82.10;;;;;;;4.26;75.92;95399.98;1811817;79;21223;-57
2021/03/28 10:25:36;;;;;;;126.02;80.12;;;;;;;4.10;76.13;95401.76;1811821;79;21073;-58
2021/03/28 10:28:16;;;;;;;122.37;79.22;;;;;;;4.04;76.34;95401.94;1811809;79;21104;-58
2021/03/28 10:31:07;;;;;;;154.00;93.25;;;;;;;3.96;76.53;95403.69;1810747;79;21195;-57
2021/03/28 10:34:12;;;;;;;178.00;109.92;;;;;;;3.97;76.90;95410.11;1811773;79;21148;-59
2021/03/28 10:37:34;;;;;;;189.03;111.05;;;;;;;4.07;77.10;95416.12;1811787;79;22115;-61
2021/03/28 10:40:30;;;;;;;149.80;88.20;;;;;;;4.15;76.99;95417.70;1811935;79;21605;-57
2021/03/28 10:43:22;;;;;;;131.60;83.58;;;;;;;4.14;76.88;95428.97;1811725;79;21207;-59
2021/03/28 10:46:34;;;;;;;132.47;81.90;;;;;;;4.05;76.93;95433.44;1797524;79;22070;-58
2021/03/28 10:49:52;;;;;;;93.62;66.97;;;;;;;4.03;77.21;95430.92;1811857;79;21603;-58
2021/03/28 10:53:01;;;;;;;103.53;70.28;;;;;;;4.11;77.24;95434.63;1812274;79;21275;-59
2021/03/28 10:56:08;;;;;;;96.87;63.65;;;;;;;4.16;77.39;95439.67;1811158;79;21827;-55
2021/03/28 10:59:24;;;;;;;109.17;72.82;;;;;;;4.28;77.27;95442.58;1810963;79;21082;-58
2021/03/28 11:02:23;;;;;;;105.40;69.85;;;;;;;4.36;77.37;95444.91;1811747;79;21553;-58
2021/03/28 11:05:23;;;;;;;102.97;70.47;;;;;;;4.53;77.13;95446.05;1812633;79;21140;-59
2021/03/28 11:08:09;;;;;;;102.70;70.32;;;;;;;4.68;77.01;95442.94;1812669;79;21375;-57
2021/03/28 11:10:46;;;;;;;86.82;61.20;;;;;;;4.82;76.71;95448.33;1812511;79;21179;-64
2021/03/28 11:13:39;;;;;;;80.25;54.27;;;;;;;4.87;76.53;95457.49;1788714;79;21660;-56
2021/03/28 11:16:51;;;;;;;77.47;51.65;;;;;;;4.88;76.62;95459.05;1812552;79;21148;-58
2021/03/28 11:19:59;;;;;;;77.62;51.45;;;;;;;4.88;76.73;95457.69;1812465;79;21123;-57
2021/03/28 11:22:51;;;;;;;59.65;41.15;;;;;;;4.95;77.03;95453.56;1812467;79;21491;-57
2021/03/28 11:25:23;;;;;;;42.13;29.70;;;;;;;5.06;76.79;95454.33;1776509;79;21853;-56
2021/03/28 11:28:15;;;;;;;34.27;24.83;;;;;;;5.18;77.00;95460.69;1812800;79;21120;-58
2021/03/28 11:31:11;;;;;;;;;;;;;;;5.34;76.67;95450.11;1815178;79;21342;-56
2021/03/28 11:33:57;;;;;;;48.42;36.25;;;;;;;5.52;76.16;95459.00;1812442;79;20244;-61
2021/03/28 11:36:31;;;;;;;72.80;48.73;;;;;;;5.54;75.75;95466.98;1812357;79;21068;-58
2021/03/28 11:39:13;;;;;;;66.53;48.05;;;;;;;5.57;75.88;95458.61;1812551;79;21179;-57
2021/03/28 11:42:00;;;;;;;71.77;51.77;;;;;;;5.71;75.64;95461.23;1812348;79;21108;-59
2021/03/28 11:44:38;;;;;;;79.87;55.10;;;;;;;5.77;75.56;95465.13;1812457;79;21204;-56
2021/03/28 11:47:21;;;;;;;132.10;84.52;;;;;;;5.86;75.82;95464.11;1812598;79;21069;-57
2021/03/28 11:50:00;;;;;;;74.05;50.43;;;;;;;6.00;75.37;95471.62;1801594;79;22010;-56
2021/03/28 11:53:02;;;;;;;32.40;22.50;;;;;;;6.06;74.35;95471.98;1812350;79;21193;-55
2021/03/28 11:55:58;;;;;;;67.62;43.38;;;;;;;6.06;73.24;95466.52;1812569;79;21159;-55
2021/03/28 11:58:42;;;;;;;58.08;39.48;;;;;;;6.14;73.06;95459.84;1812536;79;21105;-57
2021/03/28 12:01:12;;;;;;;58.15;39.50;;;;;;;6.19;73.04;95469.73;1810068;79;21157;-58
2021/03/28 12:03:41;;;;;;;34.27;23.92;;;;;;;6.35;72.83;95470.61;1812260;79;21380;-57
2021/03/28 12:06:22;;;;;;;26.35;20.05;;;;;;;6.45;71.92;95470.52;1787796;79;21128;-58
2021/03/28 12:08:56;;;;;;;29.07;21.52;;;;;;;6.43;71.44;95470.16;1812538;79;21569;-57
2021/03/28 12:11:43;;;;;;;31.60;23.27;;;;;;;6.38;71.32;95476.63;1812353;79;21512;-61
2021/03/28 12:14:26;;;;;;;20.70;15.72;;;;;;;6.40;70.84;95478.38;1812430;79;21140;-59
2021/03/28 12:17:15;;;;;;;16.55;11.53;;;;;;;6.55;70.75;95474.34;1812374;79;21096;-59
2021/03/28 12:20:04;;;;;;;19.73;15.20;;;;;;;6.64;69.59;95478.17;1812330;79;21172;-57
2021/03/28 12:22:44;;;;;;;13.03;10.43;;;;;;;6.68;69.32;95477.54;1812644;79;21112;-57
2021/03/28 12:25:27;;;;;;;17.00;12.93;;;;;;;6.74;69.28;95481.99;1812550;79;21632;-57
2021/03/28 12:28:01;;;;;;;16.35;12.00;;;;;;;6.75;68.56;95476.70;1812826;79;21065;-60
2021/03/28 12:30:40;;;;;;;13.88;8.88;;;;;;;6.86;68.90;95470.56;1812378;79;21231;-59
2021/03/28 12:33:19;;;;;;;11.35;9.15;;;;;;;7.04;68.36;95487.58;1812415;79;21175;-64
2021/03/28 12:36:03;;;;;;;9.80;5.33;;;;;;;7.12;68.13;95488.47;1812426;79;21101;-56
2021/03/28 12:38:41;;;;;;;7.60;5.72;;;;;;;7.28;67.83;95483.98;1812432;79;21144;-58
2021/03/28 12:41:30;;;;;;;6.45;5.80;;;;;;;7.58;67.79;95487.34;1812314;79;21203;-62
2021/03/28 12:44:13;;;;;;;4.60;4.20;;;;;;;8.00;66.58;95493.05;1812299;79;21354;-57
2021/03/28 12:46:54;;;;;;;4.62;4.22;;;;;;;8.36;65.61;95484.54;1809182;79;21155;-60
2021/03/28 12:49:59;;;;;;;6.97;5.60;;;;;;;8.55;64.14;95483.84;1812530;79;21108;-57
2021/03/28 12:52:35;;;;;;;7.80;6.97;;;;;;;8.67;63.13;95477.78;1812083;79;21235;-58
2021/03/28 12:55:13;;;;;;;8.38;7.08;;;;;;;8.50;63.42;95470.62;1812530;79;21151;-56
2021/03/28 12:57:52;;;;;;;6.58;5.58;;;;;;;8.63;63.35;95479.03;1812358;79;21144;-58
2021/03/28 13:00:35;;;;;;;6.58;4.87;;;;;;;9.48;62.37;95468.84;1812401;79;21164;-57
2021/03/28 13:03:31;;;;;;;5.03;4.50;;;;;;;10.46;59.79;95470.87;1812362;79;21576;-57
2021/03/28 13:06:20;;;;;;;5.47;4.85;;;;;;;11.32;58.04;95465.14;1812457;79;21180;-59
2021/03/28 13:09:00;;;;;;;5.10;4.03;;;;;;;12.21;54.56;95466.36;1805892;79;21140;-57
2021/03/28 13:11:49;;;;;;;5.00;3.85;;;;;;;12.90;51.98;95475.02;1812517;79;21733;-58
2021/03/28 13:14:44;;;;;;;9.65;7.55;;;;;;;13.36;49.53;95472.89;1812392;79;21147;-57
2021/03/28 13:17:30;;;;;;;6.35;5.50;;;;;;;12.89;50.38;95474.86;1802683;79;21136;-57
2021/03/28 13:20:22;;;;;;;9.35;7.15;;;;;;;12.23;51.25;95480.48;1812395;79;21245;-56
2021/03/28 13:22:51;;;;;;;11.38;10.28;;;;;;;11.62;50.87;95479.91;1812382;79;21151;-56